Time,TemperatureF,DewpointF,PressureIn,WindDirection,WindDirectionDegrees,WindSpeedMPH,WindSpeedGustMPH,Humidity,HourlyPrecipIn,Conditions,Clouds,dailyrainin,SolarRadiationWatts/m^2,SoftwareType,DateUTC
2013-08-21 00:02:00,54.0,41.0,-100.00,NNW,342,4.0,8.0,62,0.00,,,0.00,0.000000,,2013-08-21 06:02:00,
2013-08-21 00:42:00,50.0,40.0,-100.00,ENE,68,1.0,4.0,68,0.00,,,0.00,0.000000,,2013-08-21 06:42:00,
2013-08-21 00:52:00,50.0,40.0,-100.00,ENE,68,1.0,4.0,68,0.00,,,0.00,0.000000,,2013-08-21 06:52:00,
2013-08-21 01:01:00,50.0,40.0,-100.00,ENE,68,1.0,4.0,68,0.00,,,0.00,0.000000,,2013-08-21 07:01:00,
2013-08-21 01:42:00,50.0,40.0,-100.00,NW,318,3.0,4.0,69,0.00,,,0.00,0.000000,,2013-08-21 07:42:00,
2013-08-21 01:53:00,50.0,40.0,-100.00,NW,318,3.0,4.0,69,0.00,,,0.00,0.000000,,2013-08-21 07:53:00,
2013-08-21 02:03:00,50.0,40.0,-100.00,NW,318,3.0,4.0,69,0.00,,,0.00,0.000000,,2013-08-21 08:03:00,
2013-08-21 02:43:00,50.0,41.0,-100.00,South,182,0.0,4.0,71,0.00,,,0.00,0.000000,,2013-08-21 08:43:00,
2013-08-21 02:53:00,50.0,41.0,-100.00,South,182,0.0,4.0,71,0.00,,,0.00,0.000000,,2013-08-21 08:53:00,
2013-08-21 03:01:00,50.0,41.0,-100.00,South,182,0.0,4.0,71,0.00,,,0.00,0.000000,,2013-08-21 09:01:00,
2013-08-21 03:43:00,49.0,40.0,-100.00,NW,323,3.0,4.0,71,0.00,,,0.00,0.000000,,2013-08-21 09:43:00,
2013-08-21 03:54:00,49.0,40.0,-100.00,NW,323,3.0,4.0,71,0.00,,,0.00,0.000000,,2013-08-21 09:54:00,
2013-08-21 04:03:00,49.0,40.0,-100.00,NW,323,3.0,4.0,71,0.00,,,0.00,0.000000,,2013-08-21 10:03:00,
2013-08-21 04:43:00,45.0,39.0,-100.00,SW,228,0.0,4.0,78,0.00,,,0.00,0.000000,,2013-08-21 10:43:00,
2013-08-21 04:52:00,45.0,39.0,-100.00,SW,228,0.0,4.0,78,0.00,,,0.00,0.000000,,2013-08-21 10:52:00,
2013-08-21 05:03:00,45.0,39.0,-100.00,SW,228,0.0,4.0,78,0.00,,,0.00,0.000000,,2013-08-21 11:03:00,
2013-08-21 05:42:00,44.0,39.0,-100.00,NW,317,2.0,4.0,81,0.00,,,0.00,0.000000,,2013-08-21 11:42:00,
2013-08-21 05:53:00,44.0,39.0,-100.00,NW,317,2.0,4.0,81,0.00,,,0.00,0.000000,,2013-08-21 11:53:00,
2013-08-21 06:01:00,44.0,39.0,-100.00,NW,317,2.0,4.0,81,0.00,,,0.00,0.000000,,2013-08-21 12:01:00,
2013-08-21 06:42:00,44.0,39.0,-100.00,WNW,290,2.0,5.0,81,0.00,,,0.00,0.000000,,2013-08-21 12:42:00,
2013-08-21 06:52:00,44.0,39.0,-100.00,WNW,290,2.0,5.0,81,0.00,,,0.00,0.000000,,2013-08-21 12:52:00,
2013-08-21 07:02:00,44.0,39.0,-100.00,WNW,290,2.0,5.0,81,0.00,,,0.00,0.000000,,2013-08-21 13:02:00,
2013-08-21 07:42:00,45.0,39.0,-100.00,NW,322,3.0,5.0,80,0.00,,,0.00,15.000000,,2013-08-21 13:42:00,
2013-08-21 07:52:00,45.0,39.0,-100.00,NW,322,3.0,5.0,80,0.00,,,0.00,15.000000,,2013-08-21 13:52:00,
2013-08-21 08:02:00,45.0,39.0,-100.00,NW,322,3.0,5.0,80,0.00,,,0.00,15.000000,,2013-08-21 14:02:00,
2013-08-21 08:42:00,54.0,41.0,-100.00,North,10,3.0,6.0,62,0.00,,,0.00,214.000000,,2013-08-21 14:42:00,
2013-08-21 08:52:00,54.0,41.0,-100.00,North,10,3.0,6.0,62,0.00,,,0.00,214.000000,,2013-08-21 14:52:00,
2013-08-21 09:01:00,54.0,41.0,-100.00,North,10,3.0,6.0,62,0.00,,,0.00,214.000000,,2013-08-21 15:01:00,
2013-08-21 09:43:00,62.0,43.0,-100.00,ENE,62,3.0,5.0,49,0.00,,,0.00,474.000000,,2013-08-21 15:43:00,
2013-08-21 09:55:00,62.0,43.0,-100.00,ENE,62,3.0,5.0,49,0.00,,,0.00,474.000000,,2013-08-21 15:55:00,
2013-08-21 10:04:00,62.0,43.0,-100.00,ENE,62,3.0,5.0,49,0.00,,,0.00,474.000000,,2013-08-21 16:04:00,
2013-08-21 10:43:00,67.0,41.0,-100.00,East,100,3.0,6.0,39,0.00,,,0.00,648.000000,,2013-08-21 16:43:00,
2013-08-21 10:53:00,67.0,41.0,-100.00,East,100,3.0,6.0,39,0.00,,,0.00,648.000000,,2013-08-21 16:53:00,
2013-08-21 11:04:00,67.0,41.0,-100.00,East,100,3.0,6.0,39,0.00,,,0.00,648.000000,,2013-08-21 17:04:00,
2013-08-21 11:43:00,68.0,39.0,-100.00,ESE,113,5.0,9.0,34,0.00,,,0.00,758.000000,,2013-08-21 17:43:00,
2013-08-21 11:53:00,68.0,39.0,-100.00,ESE,113,5.0,9.0,34,0.00,,,0.00,758.000000,,2013-08-21 17:53:00,
2013-08-21 12:02:00,68.0,39.0,-100.00,ESE,113,5.0,9.0,34,0.00,,,0.00,758.000000,,2013-08-21 18:02:00,
2013-08-21 12:42:00,72.0,39.0,-100.00,SSE,150,5.0,9.0,30,0.00,,,0.00,983.000000,,2013-08-21 18:42:00,
2013-08-21 12:52:00,72.0,39.0,-100.00,SSE,150,5.0,9.0,30,0.00,,,0.00,983.000000,,2013-08-21 18:52:00,
2013-08-21 13:01:00,72.0,39.0,-100.00,SSE,150,5.0,9.0,30,0.00,,,0.00,983.000000,,2013-08-21 19:01:00,
2013-08-21 13:42:00,70.0,39.0,-100.00,NW,321,5.0,12.0,32,0.00,,,-99.99,311.000000,,2013-08-21 19:42:00,
2013-08-21 13:52:00,70.0,39.0,-100.00,NW,321,5.0,12.0,32,0.00,,,-99.99,311.000000,,2013-08-21 19:52:00,
2013-08-21 14:03:00,70.0,39.0,-100.00,NW,321,5.0,12.0,32,0.00,,,-99.99,311.000000,,2013-08-21 20:03:00,
2013-08-21 14:42:00,70.0,35.0,-100.00,North,357,7.0,15.0,28,0.00,,,0.00,347.000000,,2013-08-21 20:42:00,
2013-08-21 14:52:00,70.0,35.0,-100.00,North,357,7.0,15.0,28,0.00,,,0.00,347.000000,,2013-08-21 20:52:00,
2013-08-21 15:02:00,70.0,35.0,-100.00,North,357,7.0,15.0,28,0.00,,,0.00,347.000000,,2013-08-21 21:02:00,
2013-08-21 15:45:00,72.0,31.0,-100.00,NE,56,1.0,11.0,22,0.00,,,0.00,294.000000,,2013-08-21 21:45:00,
2013-08-21 15:55:00,72.0,31.0,-100.00,NE,56,1.0,11.0,22,0.00,,,0.00,294.000000,,2013-08-21 21:55:00,
2013-08-21 16:04:00,72.0,31.0,-100.00,NE,56,1.0,11.0,22,0.00,,,0.00,294.000000,,2013-08-21 22:04:00,
2013-08-21 16:44:00,70.0,37.0,-100.00,SSE,160,5.0,12.0,30,0.00,,,-99.99,265.000000,,2013-08-21 22:44:00,
2013-08-21 16:53:00,70.0,37.0,-100.00,SSE,160,5.0,12.0,30,0.00,,,-99.99,265.000000,,2013-08-21 22:53:00,
2013-08-21 17:04:00,70.0,37.0,-100.00,SSE,160,5.0,12.0,30,0.00,,,-99.99,265.000000,,2013-08-21 23:04:00,
2013-08-21 17:43:00,63.0,40.0,-100.00,ENE,70,7.0,17.0,43,0.00,,,0.00,123.000000,,2013-08-21 23:43:00,
2013-08-21 17:53:00,63.0,40.0,-100.00,ENE,70,7.0,17.0,43,0.00,,,0.00,123.000000,,2013-08-21 23:53:00,
2013-08-21 18:02:00,63.0,40.0,-100.00,ENE,70,7.0,17.0,43,0.00,,,0.00,123.000000,,2013-08-22 00:02:00,
2013-08-21 18:42:00,59.0,43.0,-100.00,NNW,347,2.0,17.0,56,0.00,,,0.00,27.000000,,2013-08-22 00:42:00,
2013-08-21 18:52:00,59.0,43.0,-100.00,NNW,347,2.0,17.0,56,0.00,,,0.00,27.000000,,2013-08-22 00:52:00,
2013-08-21 19:02:00,59.0,43.0,-100.00,NNW,347,2.0,17.0,56,0.00,,,0.00,27.000000,,2013-08-22 01:02:00,
2013-08-21 19:42:00,53.0,46.0,-100.00,SSW,205,8.0,13.0,76,0.03,,,0.03,17.000000,,2013-08-22 01:42:00,
2013-08-21 19:52:00,53.0,46.0,-100.00,SSW,205,8.0,13.0,76,0.03,,,0.03,17.000000,,2013-08-22 01:52:00,
2013-08-21 20:03:00,53.0,46.0,-100.00,SSW,205,8.0,13.0,76,0.03,,,0.03,17.000000,,2013-08-22 02:03:00,
2013-08-21 20:52:00,51.0,47.0,-100.00,NNW,332,0.0,9.0,85,0.00,,,0.03,5.000000,,2013-08-22 02:52:00,
2013-08-21 21:02:00,51.0,47.0,-100.00,NNW,332,0.0,9.0,85,0.00,,,0.03,5.000000,,2013-08-22 03:02:00,
2013-08-21 21:45:00,51.0,47.0,-100.00,West,275,0.0,5.0,85,0.00,,,0.03,0.000000,,2013-08-22 03:45:00,
2013-08-21 21:54:00,51.0,47.0,-100.00,West,275,0.0,5.0,85,0.00,,,0.03,0.000000,,2013-08-22 03:54:00,
2013-08-21 22:04:00,51.0,47.0,-100.00,West,275,0.0,5.0,85,0.00,,,0.03,0.000000,,2013-08-22 04:04:00,
2013-08-21 22:44:00,52.0,47.0,-100.00,NE,51,2.0,8.0,83,0.00,,,0.03,0.000000,,2013-08-22 04:44:00,
2013-08-21 22:54:00,52.0,47.0,-100.00,NE,51,2.0,8.0,83,0.00,,,0.03,0.000000,,2013-08-22 04:54:00,
2013-08-21 23:03:00,52.0,47.0,-100.00,NE,51,2.0,8.0,83,0.00,,,0.03,0.000000,,2013-08-22 05:03:00,
2013-08-21 23:43:00,51.0,47.0,-100.00,NNW,330,3.0,5.0,85,0.00,,,0.03,0.000000,,2013-08-22 05:43:00,
2013-08-21 23:53:00,51.0,47.0,-100.00,NNW,330,3.0,5.0,85,0.00,,,0.03,0.000000,,2013-08-22 05:53:00,